TAP1436 GMMN-LPPT
Flight info
| Callsign | TAP1436 |
|---|---|
| Flight time | 0h 55m |
| Altitude | 31000 |
| Route | LAKAM UR722 AMSEL DCT VATZI |
| Aircraft | A20N/M-SDE2E3FGHIRWXY/LB1 |
Departure
| Time | 2026-05-07 17:28 |
|---|---|
| Airport | Mohammed V International Airport (GMMN) |
Arrival
| Time | 2026-05-07 18:23 |
|---|---|
| Airport | Lisbon Humberto Delgado Airport (LPPT) |
| Time | Latitude | Longitude | Altitude | Speed | Heading |
|---|---|---|---|---|---|
| 2026-05-07 16:37 | 33.37419 | -7.58281 | 653 ft | 0 kts | 77° |
| 2026-05-07 17:04 | 33.37416 | -7.58297 | 655 ft | 2 kts | 77° |
| 2026-05-07 17:05 | 33.37414 | -7.58308 | 656 ft | 2 kts | 77° |
| 2026-05-07 17:05 | 33.37410 | -7.58330 | 654 ft | 2 kts | 77° |
| 2026-05-07 17:05 | 33.37407 | -7.58346 | 655 ft | 2 kts | 78° |
| 2026-05-07 17:05 | 33.37405 | -7.58363 | 654 ft | 2 kts | 118° |
| 2026-05-07 17:06 | 33.37414 | -7.58374 | 655 ft | 0 kts | 165° |
| 2026-05-07 17:07 | 33.37400 | -7.58370 | 658 ft | 5 kts | 165° |
| 2026-05-07 17:07 | 33.37347 | -7.58352 | 653 ft | 10 kts | 164° |
| 2026-05-07 17:08 | 33.37265 | -7.58324 | 653 ft | 14 kts | 163° |
| 2026-05-07 17:08 | 33.37163 | -7.58292 | 653 ft | 16 kts | 165° |
| 2026-05-07 17:08 | 33.37044 | -7.58253 | 653 ft | 18 kts | 165° |
| 2026-05-07 17:08 | 33.36948 | -7.58241 | 653 ft | 11 kts | 221° |
| 2026-05-07 17:09 | 33.36922 | -7.58339 | 656 ft | 14 kts | 253° |
| 2026-05-07 17:09 | 33.36886 | -7.58456 | 653 ft | 14 kts | 222° |
| 2026-05-07 17:09 | 33.36792 | -7.58444 | 652 ft | 15 kts | 167° |
| 2026-05-07 17:09 | 33.36684 | -7.58406 | 654 ft | 18 kts | 164° |
| 2026-05-07 17:10 | 33.36553 | -7.58362 | 653 ft | 21 kts | 164° |
| 2026-05-07 17:10 | 33.36403 | -7.58310 | 654 ft | 23 kts | 164° |
| 2026-05-07 17:10 | 33.36242 | -7.58253 | 654 ft | 25 kts | 163° |
| 2026-05-07 17:10 | 33.36063 | -7.58193 | 653 ft | 28 kts | 164° |
| 2026-05-07 17:11 | 33.35872 | -7.58128 | 654 ft | 29 kts | 163° |
| 2026-05-07 17:11 | 33.35680 | -7.58061 | 654 ft | 25 kts | 163° |
| 2026-05-07 17:11 | 33.35535 | -7.58013 | 654 ft | 17 kts | 167° |
| 2026-05-07 17:11 | 33.35483 | -7.57996 | 655 ft | 0 kts | 162° |
| 2026-05-07 17:12 | 33.35473 | -7.57992 | 653 ft | 2 kts | 163° |
| 2026-05-07 17:12 | 33.35472 | -7.57992 | 653 ft | 0 kts | 163° |
| 2026-05-07 17:13 | 33.35470 | -7.57991 | 654 ft | 1 kts | 163° |
| 2026-05-07 17:13 | 33.35450 | -7.57984 | 652 ft | 5 kts | 163° |
| 2026-05-07 17:13 | 33.35406 | -7.57969 | 654 ft | 8 kts | 163° |
| 2026-05-07 17:14 | 33.35450 | -7.57984 | 652 ft | 0 kts | 163° |
| 2026-05-07 17:15 | 33.35448 | -7.57984 | 652 ft | 2 kts | 163° |
| 2026-05-07 17:15 | 33.35397 | -7.57965 | 654 ft | 9 kts | 163° |
| 2026-05-07 17:16 | 33.35362 | -7.57953 | 652 ft | 0 kts | 164° |
| 2026-05-07 17:16 | 33.35352 | -7.57950 | 654 ft | 4 kts | 166° |
| 2026-05-07 17:16 | 33.35350 | -7.57950 | 656 ft | 0 kts | 167° |
| 2026-05-07 17:19 | 33.35347 | -7.57949 | 656 ft | 3 kts | 167° |
| 2026-05-07 17:19 | 33.35313 | -7.57946 | 653 ft | 0 kts | 185° |
| 2026-05-07 17:21 | 33.35284 | -7.57955 | 655 ft | 7 kts | 205° |
| 2026-05-07 17:21 | 33.35254 | -7.58012 | 655 ft | 3 kts | 252° |
| 2026-05-07 17:22 | 33.35253 | -7.58015 | 654 ft | 0 kts | 251° |
| 2026-05-07 17:22 | 33.35252 | -7.58018 | 652 ft | 1 kts | 251° |
| 2026-05-07 17:23 | 33.35251 | -7.58024 | 652 ft | 1 kts | 251° |
| 2026-05-07 17:23 | 33.35243 | -7.58053 | 652 ft | 7 kts | 252° |
| 2026-05-07 17:23 | 33.35236 | -7.58079 | 652 ft | 0 kts | 254° |
| 2026-05-07 17:25 | 33.35233 | -7.58092 | 652 ft | 5 kts | 254° |
| 2026-05-07 17:26 | 33.35220 | -7.58148 | 656 ft | 9 kts | 254° |
| 2026-05-07 17:26 | 33.35218 | -7.58226 | 655 ft | 11 kts | 287° |
| 2026-05-07 17:26 | 33.35274 | -7.58280 | 653 ft | 3 kts | 345° |
| 2026-05-07 17:26 | 33.35275 | -7.58280 | 653 ft | 0 kts | 345° |
| 2026-05-07 17:27 | 33.35359 | -7.58309 | 651 ft | 43 kts | 344° |
| 2026-05-07 17:27 | 33.35863 | -7.58483 | 645 ft | 104 kts | 344° |
| 2026-05-07 17:27 | 33.36710 | -7.58773 | 651 ft | 147 kts | 345° |
| 2026-05-07 17:27 | 33.37741 | -7.59113 | 1061 ft | 152 kts | 346° |
| 2026-05-07 17:28 | 33.38747 | -7.59439 | 1700 ft | 151 kts | 347° |
| 2026-05-07 17:28 | 33.39772 | -7.59754 | 2285 ft | 154 kts | 346° |
| 2026-05-07 17:28 | 33.40872 | -7.60099 | 2571 ft | 175 kts | 345° |
| 2026-05-07 17:28 | 33.42067 | -7.60684 | 2886 ft | 198 kts | 330° |
| 2026-05-07 17:29 | 33.43192 | -7.61736 | 3293 ft | 219 kts | 319° |
| 2026-05-07 17:29 | 33.44571 | -7.62659 | 3708 ft | 243 kts | 344° |
| 2026-05-07 17:29 | 33.46327 | -7.62947 | 4380 ft | 262 kts | 355° |
| 2026-05-07 17:29 | 33.48173 | -7.63137 | 5272 ft | 271 kts | 353° |
| 2026-05-07 17:30 | 33.50086 | -7.63351 | 6196 ft | 281 kts | 353° |
| 2026-05-07 17:30 | 33.52056 | -7.63604 | 7077 ft | 289 kts | 352° |
| 2026-05-07 17:30 | 33.54061 | -7.63888 | 8065 ft | 292 kts | 351° |
| 2026-05-07 17:30 | 33.56100 | -7.64192 | 9032 ft | 298 kts | 350° |
| 2026-05-07 17:31 | 33.58185 | -7.64510 | 9916 ft | 306 kts | 350° |
| 2026-05-07 17:31 | 33.60306 | -7.64837 | 10572 ft | 321 kts | 350° |
| 2026-05-07 17:31 | 33.62608 | -7.65194 | 10918 ft | 346 kts | 350° |
| 2026-05-07 17:31 | 33.65060 | -7.65572 | 11420 ft | 361 kts | 350° |
| 2026-05-07 17:32 | 33.67565 | -7.65954 | 12280 ft | 365 kts | 350° |
| 2026-05-07 17:32 | 33.70108 | -7.66339 | 13124 ft | 371 kts | 350° |
| 2026-05-07 17:32 | 33.72687 | -7.66732 | 13932 ft | 376 kts | 349° |
| 2026-05-07 17:32 | 33.75298 | -7.67130 | 14569 ft | 380 kts | 349° |
| 2026-05-07 17:33 | 33.77925 | -7.67531 | 14836 ft | 381 kts | 349° |
| 2026-05-07 17:33 | 33.80554 | -7.67934 | 14931 ft | 381 kts | 349° |
| 2026-05-07 17:33 | 33.83193 | -7.68339 | 14972 ft | 383 kts | 349° |
| 2026-05-07 17:33 | 33.85814 | -7.68743 | 15433 ft | 386 kts | 349° |
| 2026-05-07 17:34 | 33.88474 | -7.69151 | 16330 ft | 386 kts | 348° |
| 2026-05-07 17:34 | 33.91152 | -7.69562 | 17090 ft | 390 kts | 348° |
| 2026-05-07 17:34 | 33.93857 | -7.69976 | 17835 ft | 394 kts | 348° |
| 2026-05-07 17:34 | 33.96584 | -7.70394 | 18521 ft | 398 kts | 348° |
| 2026-05-07 17:35 | 33.99346 | -7.70818 | 19152 ft | 401 kts | 348° |
| 2026-05-07 17:35 | 34.02131 | -7.71248 | 19783 ft | 405 kts | 347° |
| 2026-05-07 17:35 | 34.04941 | -7.71682 | 20392 ft | 410 kts | 347° |
| 2026-05-07 17:35 | 34.07782 | -7.72122 | 21013 ft | 414 kts | 347° |
| 2026-05-07 17:36 | 34.10614 | -7.72561 | 21610 ft | 418 kts | 347° |
| 2026-05-07 17:36 | 34.13505 | -7.73009 | 22219 ft | 422 kts | 347° |
| 2026-05-07 17:36 | 34.16430 | -7.73463 | 22814 ft | 426 kts | 347° |
| 2026-05-07 17:36 | 34.19386 | -7.73874 | 23395 ft | 433 kts | 351° |
| 2026-05-07 17:37 | 34.22412 | -7.74077 | 23922 ft | 436 kts | 351° |
| 2026-05-07 17:37 | 34.25451 | -7.74283 | 24450 ft | 439 kts | 351° |
| 2026-05-07 17:37 | 34.28509 | -7.74494 | 24965 ft | 441 kts | 351° |
| 2026-05-07 17:37 | 34.31586 | -7.74708 | 25451 ft | 444 kts | 351° |
| 2026-05-07 17:38 | 34.34682 | -7.74924 | 25943 ft | 447 kts | 351° |
| 2026-05-07 17:38 | 34.37794 | -7.75141 | 26413 ft | 450 kts | 351° |
| 2026-05-07 17:38 | 34.40931 | -7.75359 | 26881 ft | 453 kts | 351° |
| 2026-05-07 17:38 | 34.44038 | -7.75576 | 27329 ft | 455 kts | 351° |
| 2026-05-07 17:39 | 34.47214 | -7.75797 | 27769 ft | 458 kts | 351° |
| 2026-05-07 17:39 | 34.50400 | -7.76020 | 28199 ft | 461 kts | 351° |
| 2026-05-07 17:39 | 34.53610 | -7.76244 | 28609 ft | 463 kts | 351° |
| 2026-05-07 17:39 | 34.56836 | -7.76469 | 29017 ft | 466 kts | 350° |
| 2026-05-07 17:40 | 34.60078 | -7.76695 | 29402 ft | 468 kts | 350° |
| 2026-05-07 17:40 | 34.63337 | -7.76923 | 29785 ft | 470 kts | 350° |
| 2026-05-07 17:40 | 34.66611 | -7.77152 | 29946 ft | 472 kts | 350° |
| 2026-05-07 17:40 | 34.69846 | -7.77378 | 29943 ft | 472 kts | 350° |
| 2026-05-07 17:41 | 34.76389 | -7.77843 | 29954 ft | 471 kts | 350° |
| 2026-05-07 17:41 | 34.82916 | -7.78393 | 29948 ft | 470 kts | 349° |
| 2026-05-07 17:42 | 34.89438 | -7.78952 | 29954 ft | 470 kts | 349° |
| 2026-05-07 17:42 | 34.95962 | -7.79502 | 29955 ft | 470 kts | 349° |
| 2026-05-07 17:43 | 35.02437 | -7.80046 | 29954 ft | 470 kts | 349° |
| 2026-05-07 17:43 | 35.08957 | -7.80594 | 29951 ft | 470 kts | 349° |
| 2026-05-07 17:44 | 35.15481 | -7.81143 | 29953 ft | 470 kts | 350° |
| 2026-05-07 17:44 | 35.22003 | -7.81693 | 29951 ft | 470 kts | 350° |
| 2026-05-07 17:45 | 35.28485 | -7.82240 | 29949 ft | 470 kts | 350° |
| 2026-05-07 17:45 | 35.35016 | -7.82792 | 29949 ft | 470 kts | 350° |
| 2026-05-07 17:46 | 35.41546 | -7.83345 | 29952 ft | 471 kts | 350° |
| 2026-05-07 17:46 | 35.48084 | -7.83925 | 29950 ft | 471 kts | 349° |
| 2026-05-07 17:47 | 35.54611 | -7.84519 | 29953 ft | 471 kts | 349° |
| 2026-05-07 17:47 | 35.61106 | -7.85108 | 29952 ft | 471 kts | 350° |
| 2026-05-07 17:48 | 35.67647 | -7.85699 | 29949 ft | 471 kts | 350° |
| 2026-05-07 17:48 | 35.74195 | -7.86292 | 29951 ft | 472 kts | 350° |
| 2026-05-07 17:49 | 35.80749 | -7.86886 | 29949 ft | 472 kts | 349° |
| 2026-05-07 17:49 | 35.87257 | -7.87476 | 29949 ft | 472 kts | 349° |
| 2026-05-07 17:50 | 35.93803 | -7.88177 | 29948 ft | 469 kts | 345° |
| 2026-05-07 17:50 | 35.99983 | -7.90330 | 29945 ft | 457 kts | 330° |
| 2026-05-07 17:51 | 36.05703 | -7.93661 | 29945 ft | 455 kts | 328° |
| 2026-05-07 17:51 | 36.11422 | -7.97012 | 29946 ft | 455 kts | 328° |
| 2026-05-07 17:52 | 36.17097 | -8.00350 | 29946 ft | 455 kts | 328° |
| 2026-05-07 17:52 | 36.22812 | -8.03723 | 29941 ft | 455 kts | 328° |
| 2026-05-07 17:53 | 36.28528 | -8.07104 | 29940 ft | 455 kts | 328° |
| 2026-05-07 17:53 | 36.34242 | -8.10489 | 29936 ft | 455 kts | 328° |
| 2026-05-07 17:54 | 36.39964 | -8.13882 | 29939 ft | 456 kts | 328° |
| 2026-05-07 17:54 | 36.45644 | -8.17258 | 29939 ft | 456 kts | 328° |
| 2026-05-07 17:55 | 36.51366 | -8.20665 | 29934 ft | 456 kts | 328° |
| 2026-05-07 17:55 | 36.57087 | -8.24077 | 29937 ft | 456 kts | 328° |
| 2026-05-07 17:56 | 36.62813 | -8.27498 | 29938 ft | 457 kts | 328° |
| 2026-05-07 17:56 | 36.68539 | -8.30924 | 29932 ft | 457 kts | 328° |
| 2026-05-07 17:57 | 36.73300 | -8.33777 | 29922 ft | 457 kts | 328° |
| 2026-05-07 17:57 | 36.79957 | -8.37773 | 29935 ft | 457 kts | 328° |
| 2026-05-07 17:58 | 36.85686 | -8.41219 | 29933 ft | 458 kts | 328° |
| 2026-05-07 17:58 | 36.91424 | -8.44675 | 29936 ft | 458 kts | 328° |
| 2026-05-07 17:59 | 36.97160 | -8.48136 | 29933 ft | 458 kts | 328° |
| 2026-05-07 17:59 | 37.02903 | -8.51607 | 29934 ft | 459 kts | 328° |
| 2026-05-07 18:00 | 37.08609 | -8.55062 | 29939 ft | 459 kts | 328° |
| 2026-05-07 18:00 | 37.14357 | -8.58547 | 29932 ft | 459 kts | 328° |
| 2026-05-07 18:01 | 37.20109 | -8.62040 | 29936 ft | 459 kts | 328° |
| 2026-05-07 18:01 | 37.25840 | -8.65526 | 29546 ft | 455 kts | 328° |
| 2026-05-07 18:02 | 37.31494 | -8.68972 | 28331 ft | 448 kts | 328° |
| 2026-05-07 18:02 | 37.34292 | -8.70679 | 27696 ft | 445 kts | 328° |
| 2026-05-07 18:02 | 37.37064 | -8.72372 | 27055 ft | 441 kts | 329° |
| 2026-05-07 18:03 | 37.39815 | -8.74055 | 26430 ft | 438 kts | 329° |
| 2026-05-07 18:03 | 37.42508 | -8.75705 | 25830 ft | 435 kts | 329° |
| 2026-05-07 18:03 | 37.45217 | -8.77365 | 25237 ft | 432 kts | 329° |
| 2026-05-07 18:03 | 37.47907 | -8.79015 | 24631 ft | 429 kts | 329° |
| 2026-05-07 18:04 | 37.50585 | -8.80659 | 24049 ft | 426 kts | 329° |
| 2026-05-07 18:04 | 37.53243 | -8.82291 | 23459 ft | 424 kts | 329° |
| 2026-05-07 18:04 | 37.55887 | -8.83915 | 22810 ft | 421 kts | 329° |
| 2026-05-07 18:04 | 37.58503 | -8.85521 | 22228 ft | 417 kts | 330° |
| 2026-05-07 18:05 | 37.61190 | -8.86898 | 21622 ft | 417 kts | 338° |
| 2026-05-07 18:05 | 37.63944 | -8.88001 | 21038 ft | 414 kts | 338° |
| 2026-05-07 18:05 | 37.66675 | -8.89104 | 20462 ft | 410 kts | 338° |
| 2026-05-07 18:05 | 37.69347 | -8.90189 | 19911 ft | 407 kts | 338° |
| 2026-05-07 18:06 | 37.72027 | -8.91280 | 19353 ft | 404 kts | 338° |
| 2026-05-07 18:06 | 37.74719 | -8.92262 | 18804 ft | 404 kts | 347° |
| 2026-05-07 18:06 | 37.77513 | -8.92404 | 18490 ft | 399 kts | 359° |
| 2026-05-07 18:06 | 37.80238 | -8.92254 | 18352 ft | 385 kts | 359° |
| 2026-05-07 18:07 | 37.82866 | -8.92113 | 18226 ft | 371 kts | 359° |
| 2026-05-07 18:07 | 37.85404 | -8.91979 | 18096 ft | 358 kts | 359° |
| 2026-05-07 18:07 | 37.87861 | -8.91851 | 17752 ft | 352 kts | 359° |
| 2026-05-07 18:07 | 37.90290 | -8.91727 | 17424 ft | 342 kts | 360° |
| 2026-05-07 18:08 | 37.92564 | -8.91741 | 17249 ft | 321 kts | 349° |
| 2026-05-07 18:08 | 37.94727 | -8.92088 | 17106 ft | 308 kts | 349° |
| 2026-05-07 18:08 | 37.96834 | -8.92434 | 16791 ft | 304 kts | 349° |
| 2026-05-07 18:08 | 37.98927 | -8.92779 | 16421 ft | 302 kts | 349° |
| 2026-05-07 18:09 | 38.01004 | -8.93123 | 16075 ft | 300 kts | 349° |
| 2026-05-07 18:09 | 38.03071 | -8.93463 | 15723 ft | 299 kts | 350° |
| 2026-05-07 18:09 | 38.05125 | -8.93801 | 15376 ft | 297 kts | 350° |
| 2026-05-07 18:09 | 38.07170 | -8.94138 | 15033 ft | 295 kts | 350° |
| 2026-05-07 18:10 | 38.09201 | -8.94472 | 14694 ft | 294 kts | 351° |
| 2026-05-07 18:10 | 38.11192 | -8.94799 | 14374 ft | 292 kts | 351° |
| 2026-05-07 18:10 | 38.13201 | -8.95130 | 14004 ft | 292 kts | 351° |
| 2026-05-07 18:10 | 38.15221 | -8.95463 | 13626 ft | 292 kts | 351° |
| 2026-05-07 18:11 | 38.17212 | -8.95790 | 13340 ft | 287 kts | 351° |
| 2026-05-07 18:11 | 38.18548 | -8.96010 | 13094 ft | 286 kts | 351° |
| 2026-05-07 18:11 | 38.21147 | -8.96437 | 12633 ft | 283 kts | 351° |
| 2026-05-07 18:11 | 38.23098 | -8.96758 | 12271 ft | 282 kts | 351° |
| 2026-05-07 18:12 | 38.25038 | -8.97078 | 11932 ft | 280 kts | 351° |
| 2026-05-07 18:12 | 38.26965 | -8.97396 | 11583 ft | 279 kts | 352° |
| 2026-05-07 18:12 | 38.28886 | -8.97714 | 11252 ft | 278 kts | 352° |
| 2026-05-07 18:12 | 38.30770 | -8.98024 | 10922 ft | 276 kts | 352° |
| 2026-05-07 18:13 | 38.32668 | -8.98337 | 10589 ft | 275 kts | 352° |
| 2026-05-07 18:13 | 38.34546 | -8.98709 | 10265 ft | 272 kts | 341° |
| 2026-05-07 18:13 | 38.36165 | -8.99867 | 9918 ft | 266 kts | 313° |
| 2026-05-07 18:13 | 38.37254 | -9.01733 | 9553 ft | 262 kts | 299° |
| 2026-05-07 18:14 | 38.38221 | -9.03687 | 9211 ft | 260 kts | 299° |
| 2026-05-07 18:14 | 38.39180 | -9.05627 | 8893 ft | 258 kts | 298° |
| 2026-05-07 18:14 | 38.40135 | -9.07547 | 8570 ft | 256 kts | 298° |
| 2026-05-07 18:14 | 38.41086 | -9.09458 | 8249 ft | 254 kts | 299° |
| 2026-05-07 18:15 | 38.42027 | -9.11354 | 7932 ft | 253 kts | 299° |
| 2026-05-07 18:15 | 38.42950 | -9.13217 | 7617 ft | 251 kts | 298° |
| 2026-05-07 18:15 | 38.43881 | -9.15094 | 7342 ft | 249 kts | 298° |
| 2026-05-07 18:15 | 38.44797 | -9.16940 | 7083 ft | 245 kts | 298° |
| 2026-05-07 18:16 | 38.45711 | -9.18777 | 6771 ft | 244 kts | 299° |
| 2026-05-07 18:16 | 38.46616 | -9.20603 | 6493 ft | 242 kts | 299° |
| 2026-05-07 18:16 | 38.47520 | -9.22407 | 6235 ft | 240 kts | 303° |
| 2026-05-07 18:16 | 38.48806 | -9.23756 | 5937 ft | 244 kts | 334° |
| 2026-05-07 18:17 | 38.50460 | -9.24263 | 5601 ft | 246 kts | 349° |
| 2026-05-07 18:17 | 38.52117 | -9.24586 | 5502 ft | 236 kts | 349° |
| 2026-05-07 18:17 | 38.53702 | -9.24890 | 5411 ft | 225 kts | 349° |
| 2026-05-07 18:17 | 38.55229 | -9.25099 | 5324 ft | 217 kts | 358° |
| 2026-05-07 18:18 | 38.56693 | -9.24862 | 5134 ft | 215 kts | 12° |
| 2026-05-07 18:18 | 38.58117 | -9.24268 | 4908 ft | 213 kts | 19° |
| 2026-05-07 18:18 | 38.59440 | -9.23575 | 4873 ft | 196 kts | 20° |
| 2026-05-07 18:18 | 38.60672 | -9.22891 | 4617 ft | 189 kts | 21° |
| 2026-05-07 18:19 | 38.61865 | -9.22221 | 4316 ft | 186 kts | 20° |
| 2026-05-07 18:19 | 38.63044 | -9.21588 | 4035 ft | 177 kts | 18° |
| 2026-05-07 18:19 | 38.64148 | -9.21026 | 3738 ft | 167 kts | 17° |
| 2026-05-07 18:19 | 38.65207 | -9.20462 | 3329 ft | 162 kts | 18° |
| 2026-05-07 18:20 | 38.66230 | -9.19929 | 2884 ft | 156 kts | 18° |
| 2026-05-07 18:20 | 38.67200 | -9.19383 | 2468 ft | 152 kts | 16° |
| 2026-05-07 18:20 | 38.68274 | -9.18877 | 2162 ft | 178 kts | 17° |
| 2026-05-07 18:20 | 38.69349 | -9.18283 | 1894 ft | 156 kts | 16° |
| 2026-05-07 18:21 | 38.70289 | -9.17787 | 1690 ft | 139 kts | 17° |
| 2026-05-07 18:21 | 38.71155 | -9.17327 | 1503 ft | 137 kts | 16° |
| 2026-05-07 18:21 | 38.72040 | -9.16853 | 1320 ft | 136 kts | 15° |
| 2026-05-07 18:21 | 38.72909 | -9.16388 | 1119 ft | 137 kts | 15° |
| 2026-05-07 18:22 | 38.73776 | -9.15924 | 938 ft | 130 kts | 17° |
| 2026-05-07 18:22 | 38.74324 | -9.15630 | 820 ft | 131 kts | 17° |
| 2026-05-07 18:22 | 38.75500 | -9.15001 | 583 ft | 132 kts | 17° |
| 2026-05-07 18:22 | 38.76341 | -9.14551 | 419 ft | 131 kts | 17° |
| 2026-05-07 18:23 | 38.77170 | -9.14106 | 350 ft | 121 kts | 16° |
| 2026-05-07 18:23 | 38.77783 | -9.13780 | 350 ft | 74 kts | 22° |
| 2026-05-07 18:23 | 38.78169 | -9.13571 | 352 ft | 46 kts | 26° |
| 2026-05-07 18:23 | 38.78366 | -9.13341 | 349 ft | 12 kts | 67° |
| 2026-05-07 18:24 | 38.78343 | -9.13267 | 358 ft | 9 kts | 175° |
| 2026-05-07 18:24 | 38.78271 | -9.13289 | 349 ft | 12 kts | 205° |
| 2026-05-07 18:24 | 38.78182 | -9.13326 | 350 ft | 15 kts | 202° |
| 2026-05-07 18:24 | 38.78094 | -9.13378 | 349 ft | 13 kts | 203° |
| 2026-05-07 18:25 | 38.78004 | -9.13401 | 347 ft | 4 kts | 188° |
| 2026-05-07 18:25 | 38.77997 | -9.13402 | 355 ft | 4 kts | 188° |
| 2026-05-07 18:26 | 38.77948 | -9.13395 | 351 ft | 10 kts | 168° |
| 2026-05-07 18:26 | 38.77864 | -9.13375 | 347 ft | 14 kts | 168° |
| 2026-05-07 18:26 | 38.77754 | -9.13344 | 348 ft | 18 kts | 168° |
| 2026-05-07 18:26 | 38.77662 | -9.13359 | 350 ft | 11 kts | 236° |
| 2026-05-07 18:27 | 38.77603 | -9.13412 | 353 ft | 11 kts | 197° |
| 2026-05-07 18:27 | 38.77528 | -9.13431 | 350 ft | 0 kts | 158° |
| 2026-05-07 18:27 | 38.77526 | -9.13431 | 349 ft | 2 kts | 159° |
| 2026-05-07 18:27 | 38.77511 | -9.13427 | 350 ft | 5 kts | 168° |
| 2026-05-07 18:28 | 38.77432 | -9.13405 | 347 ft | 12 kts | 168° |
| 2026-05-07 18:28 | 38.77354 | -9.13383 | 347 ft | 0 kts | 167° |
| 2026-05-07 18:29 | 38.77343 | -9.13387 | 347 ft | 4 kts | 204° |
| 2026-05-07 18:29 | 38.77313 | -9.13424 | 347 ft | 8 kts | 261° |
| 2026-05-07 18:29 | 38.77302 | -9.13470 | 352 ft | 0 kts | 246° |
| 2026-05-07 18:30 | 38.77290 | -9.13481 | 351 ft | 5 kts | 211° |
| 2026-05-07 18:30 | 38.77236 | -9.13485 | 347 ft | 11 kts | 171° |
| 2026-05-07 18:30 | 38.77150 | -9.13463 | 347 ft | 10 kts | 166° |
| 2026-05-07 18:30 | 38.77146 | -9.13462 | 347 ft | 0 kts | 166° |
| 2026-05-07 18:34 | 38.77134 | -9.13458 | 347 ft | 7 kts | 167° |
| 2026-05-07 18:34 | 38.77051 | -9.13436 | 350 ft | 17 kts | 168° |
| 2026-05-07 18:34 | 38.76954 | -9.13410 | 350 ft | 10 kts | 168° |
| 2026-05-07 18:34 | 38.76901 | -9.13396 | 350 ft | 10 kts | 168° |
| 2026-05-07 18:35 | 38.76829 | -9.13376 | 347 ft | 0 kts | 167° |
| 2026-05-07 18:35 | 38.76812 | -9.13371 | 347 ft | 9 kts | 168° |
| 2026-05-07 18:35 | 38.76732 | -9.13398 | 348 ft | 14 kts | 210° |
| 2026-05-07 18:35 | 38.76639 | -9.13470 | 349 ft | 14 kts | 211° |
| 2026-05-07 18:36 | 38.76556 | -9.13445 | 357 ft | 11 kts | 121° |
| 2026-05-07 18:36 | 38.76561 | -9.13405 | 347 ft | 0 kts | 73° |